createdAt,value
2022-10-19T00:01:17.944Z,17.00
2022-10-19T00:03:46.866Z,19.43
2022-10-19T00:06:16.972Z,16.07
2022-10-19T00:08:44.074Z,22.73
2022-10-19T00:11:11.123Z,12.57
2022-10-19T00:13:38.734Z,29.13
2022-10-19T00:16:13.417Z,27.07
2022-10-19T00:18:40.656Z,12.90
2022-10-19T00:21:08.764Z,19.13
2022-10-19T00:23:35.476Z,22.93
2022-10-19T00:26:02.415Z,23.87
2022-10-19T00:28:28.995Z,18.83
2022-10-19T00:30:55.479Z,23.17
2022-10-19T00:33:22.598Z,19.20
2022-10-19T00:35:50.283Z,12.43
2022-10-19T00:38:18.124Z,15.43
2022-10-19T00:40:45.088Z,13.47
2022-10-19T00:43:16.469Z,14.73
2022-10-19T00:45:43.004Z,15.10
2022-10-19T00:48:11.568Z,20.87
2022-10-19T00:50:38.791Z,20.17
2022-10-19T00:53:05.462Z,20.00
2022-10-19T00:55:32.751Z,20.90
2022-10-19T00:57:59.355Z,12.77
2022-10-19T01:00:25.863Z,19.20
2022-10-19T01:02:52.319Z,14.97
2022-10-19T01:05:18.971Z,16.83
2022-10-19T01:07:45.425Z,17.43
2022-10-19T01:10:12.153Z,23.60
2022-10-19T01:13:04.059Z,18.87
2022-10-19T01:15:33.475Z,13.13
2022-10-19T01:18:29.290Z,18.20
2022-10-19T01:21:01.504Z,17.50
2022-10-19T01:23:43.317Z,16.63
2022-10-19T01:26:28.216Z,21.80
2022-10-19T01:29:19.163Z,13.87
2022-10-19T01:31:56.720Z,52.73
2022-10-19T01:34:30.367Z,23.03
2022-10-19T01:37:03.343Z,17.07
2022-10-19T01:39:45.290Z,21.10
2022-10-19T01:42:34.121Z,12.70
2022-10-19T01:45:27.434Z,17.90
2022-10-19T01:48:03.243Z,11.03
2022-10-19T01:50:52.400Z,16.77
2022-10-19T01:53:20.052Z,20.83
2022-10-19T01:55:50.503Z,17.20
2022-10-19T01:58:20.279Z,18.47
2022-10-19T02:00:48.677Z,17.90
2022-10-19T02:03:15.921Z,23.70
2022-10-19T02:05:44.346Z,18.90
2022-10-19T02:08:18.059Z,14.47
2022-10-19T02:10:45.407Z,11.10
2022-10-19T02:13:14.187Z,15.67
2022-10-19T02:15:45.183Z,15.57
2022-10-19T02:18:14.143Z,14.83
2022-10-19T02:20:40.557Z,16.30
2022-10-19T02:23:07.503Z,19.57
2022-10-19T02:25:34.638Z,20.77
2022-10-19T02:28:02.192Z,19.63
2022-10-19T02:30:28.840Z,21.80
2022-10-19T02:32:55.330Z,12.40
2022-10-19T02:35:22.972Z,12.47
2022-10-19T02:37:49.502Z,10.47
2022-10-19T02:40:16.099Z,16.57
2022-10-19T02:42:47.629Z,15.53
2022-10-19T02:45:21.830Z,13.27
2022-10-19T02:47:55.263Z,13.13
2022-10-19T02:50:22.416Z,12.00
2022-10-19T02:52:48.940Z,14.10
2022-10-19T02:55:15.424Z,14.50
2022-10-19T02:57:41.898Z,14.40
2022-10-19T03:00:10.279Z,13.30
2022-10-19T03:02:36.847Z,21.57
2022-10-19T03:05:04.276Z,20.50
2022-10-19T03:07:30.911Z,19.20
2022-10-19T03:09:57.588Z,10.10
2022-10-19T03:12:24.123Z,13.90
2022-10-19T03:14:50.617Z,17.23
2022-10-19T03:17:17.122Z,19.43
2022-10-19T03:19:43.667Z,20.40
2022-10-19T03:22:10.246Z,13.60
2022-10-19T03:24:36.694Z,23.47
2022-10-19T03:27:03.166Z,15.70
2022-10-19T03:29:29.705Z,12.60
2022-10-19T03:31:56.246Z,16.30
2022-10-19T03:34:22.942Z,16.73
2022-10-19T03:36:49.495Z,16.30
2022-10-19T03:39:16.679Z,18.60
2022-10-19T03:41:43.362Z,14.30
2022-10-19T03:44:10.826Z,16.77
2022-10-19T03:46:37.977Z,19.53
2022-10-19T03:49:04.751Z,26.97
2022-10-19T03:51:32.090Z,14.57
2022-10-19T03:54:00.774Z,16.97
2022-10-19T03:56:28.878Z,17.07
2022-10-19T03:58:57.030Z,12.53
2022-10-19T04:01:26.064Z,14.80
2022-10-19T04:03:57.579Z,13.43
2022-10-19T04:06:29.682Z,17.30
2022-10-19T04:08:56.477Z,13.53
2022-10-19T04:11:24.943Z,15.47
2022-10-19T04:13:52.749Z,18.23
2022-10-19T04:16:20.628Z,22.43
2022-10-19T04:18:47.715Z,23.77
2022-10-19T04:21:28.828Z,29.23
2022-10-19T04:24:13.062Z,17.60
2022-10-19T04:26:45.102Z,26.13
2022-10-19T04:29:11.798Z,17.13
2022-10-19T04:31:39.141Z,17.27
2022-10-19T04:34:06.175Z,18.63
2022-10-19T04:36:32.771Z,16.73
2022-10-19T04:38:59.339Z,21.80
2022-10-19T04:41:25.959Z,17.83
2022-10-19T04:43:57.957Z,20.70
2022-10-19T04:46:25.282Z,20.33
2022-10-19T04:48:52.094Z,31.67
2022-10-19T04:51:21.600Z,30.57
2022-10-19T04:53:48.429Z,25.37
2022-10-19T04:56:18.250Z,24.30
2022-10-19T04:58:45.085Z,27.73
2022-10-19T05:01:16.183Z,24.60
2022-10-19T05:03:43.063Z,20.03
2022-10-19T05:06:10.613Z,14.63
2022-10-19T05:08:37.749Z,30.20
2022-10-19T05:11:09.630Z,19.63
2022-10-19T05:13:36.678Z,30.10
2022-10-19T05:16:05.331Z,23.63
2022-10-19T05:18:32.160Z,18.80
2022-10-19T05:21:06.036Z,14.23
2022-10-19T05:26:07.511Z,24.50
2022-10-19T05:28:34.606Z,19.00
2022-10-19T05:31:09.386Z,21.30
2022-10-19T05:33:36.313Z,23.50
2022-10-19T05:36:25.336Z,20.37
2022-10-19T05:38:53.096Z,22.93
2022-10-19T05:41:20.808Z,19.30
2022-10-19T05:43:47.833Z,29.10
2022-10-19T05:46:18.998Z,27.43
2022-10-19T05:48:46.741Z,23.57
2022-10-19T05:51:15.299Z,31.17
2022-10-19T05:53:42.171Z,12.80
2022-10-19T05:56:11.455Z,22.27
2022-10-19T05:58:38.066Z,20.20
2022-10-19T06:01:04.876Z,16.17
2022-10-19T06:03:31.413Z,21.13
2022-10-19T06:05:58.223Z,24.97
2022-10-19T06:08:25.190Z,14.07
2022-10-19T06:10:51.984Z,27.33
2022-10-19T06:13:19.354Z,19.00
2022-10-19T06:15:50.603Z,28.57
2022-10-19T06:18:17.050Z,23.37
2022-10-19T06:20:43.467Z,25.23
2022-10-19T06:23:10.124Z,21.53
2022-10-19T06:25:36.919Z,15.23
2022-10-19T06:28:03.983Z,16.10
2022-10-19T06:30:30.527Z,23.47
2022-10-19T06:32:58.883Z,28.77
2022-10-19T06:35:25.513Z,19.40
2022-10-19T06:37:52.170Z,22.00
2022-10-19T06:40:18.624Z,26.73
2022-10-19T06:42:45.196Z,28.10
2022-10-19T06:45:11.752Z,24.27
2022-10-19T06:47:38.632Z,19.80
2022-10-19T06:50:06.406Z,24.63
2022-10-19T06:52:34.435Z,25.90
2022-10-19T06:55:01.497Z,21.83
2022-10-19T06:57:28.911Z,22.63
2022-10-19T06:59:55.614Z,20.07
2022-10-19T07:02:22.587Z,21.77
2022-10-19T07:04:49.082Z,31.00
2022-10-19T07:07:15.612Z,19.83
2022-10-19T07:09:42.050Z,15.33
2022-10-19T07:12:10.776Z,34.10
2022-10-19T07:14:39.660Z,17.47
2022-10-19T07:17:11.730Z,17.87
2022-10-19T07:19:38.576Z,21.07
2022-10-19T07:22:05.344Z,29.13
2022-10-19T07:24:31.788Z,20.37
2022-10-19T07:26:58.387Z,17.30
2022-10-19T07:29:24.843Z,18.00
2022-10-19T07:31:51.396Z,22.70
2022-10-19T07:34:17.957Z,22.53
2022-10-19T07:36:47.866Z,35.17
2022-10-19T07:39:16.891Z,41.67
2022-10-19T07:41:44.273Z,17.27
2022-10-19T07:44:13.401Z,18.07
2022-10-19T07:46:42.305Z,19.60
2022-10-19T07:49:11.151Z,24.33
2022-10-19T07:51:38.389Z,24.37
2022-10-19T07:54:05.119Z,17.53
2022-10-19T07:56:32.290Z,29.03
2022-10-19T07:58:59.989Z,19.40
2022-10-19T08:01:29.519Z,25.77
2022-10-19T08:04:43.311Z,22.57
2022-10-19T08:06:44.299Z,33.83
2022-10-19T08:09:15.597Z,22.70
2022-10-19T08:11:49.571Z,26.63
2022-10-19T08:14:16.567Z,21.00
2022-10-19T08:16:44.885Z,18.13
2022-10-19T08:19:13.749Z,19.10
2022-10-19T08:21:42.923Z,21.90
2022-10-19T08:24:10.159Z,16.63
2022-10-19T08:26:38.335Z,15.07
2022-10-19T08:29:07.606Z,19.57
2022-10-19T08:31:34.306Z,30.83
2022-10-19T08:34:00.965Z,18.50
2022-10-19T08:36:31.217Z,17.33
2022-10-19T08:38:58.316Z,25.43
2022-10-19T08:41:33.731Z,23.30
2022-10-19T08:44:19.045Z,22.10
2022-10-19T08:47:13.871Z,19.27
2022-10-19T08:49:40.958Z,18.33
2022-10-19T08:52:13.106Z,34.80
2022-10-19T08:54:54.289Z,35.43
2022-10-19T08:57:45.740Z,26.57
2022-10-19T09:00:42.800Z,34.77
2022-10-19T09:03:27.126Z,28.93
2022-10-19T09:06:32.630Z,43.30
2022-10-19T09:08:59.397Z,37.10
2022-10-19T09:11:30.973Z,39.23
2022-10-19T09:14:25.444Z,31.93
2022-10-19T09:16:51.984Z,36.10
2022-10-19T09:19:26.163Z,36.77
2022-10-19T09:21:58.541Z,38.40
2022-10-19T09:24:39.185Z,36.00
2022-10-19T09:27:06.042Z,33.47
2022-10-19T09:29:40.549Z,34.50
2022-10-19T09:32:30.444Z,30.53
2022-10-19T09:34:59.182Z,31.70
2022-10-19T09:37:26.808Z,34.43
2022-10-19T09:39:55.655Z,37.27
2022-10-19T09:42:33.197Z,35.53
2022-10-19T09:45:02.297Z,38.83
2022-10-19T09:47:33.001Z,35.10
2022-10-19T09:50:29.875Z,43.23
2022-10-19T09:52:58.375Z,37.30
2022-10-19T09:55:43.176Z,35.63
2022-10-19T09:58:18.227Z,35.63
2022-10-19T10:00:45.877Z,43.33
2022-10-19T10:03:25.943Z,38.73
2022-10-19T10:05:53.198Z,39.97
2022-10-19T10:08:25.777Z,50.10
2022-10-19T10:11:08.480Z,46.53
2022-10-19T10:13:43.306Z,42.87
2022-10-19T10:16:16.980Z,44.60
2022-10-19T10:19:03.189Z,49.27
2022-10-19T10:21:36.460Z,53.23
2022-10-19T10:24:17.073Z,41.90
2022-10-19T10:27:03.884Z,58.50
2022-10-19T10:29:35.741Z,41.63
2022-10-19T10:32:08.801Z,40.33
2022-10-19T10:34:54.840Z,45.37
2022-10-19T10:37:30.045Z,39.20
2022-10-19T10:40:00.417Z,43.50
2022-10-19T10:42:35.108Z,46.57
2022-10-19T10:45:02.160Z,51.83
2022-10-19T10:47:29.358Z,45.03
2022-10-19T10:50:02.921Z,36.13
2022-10-19T10:52:33.599Z,36.13
2022-10-19T10:55:09.529Z,41.10
2022-10-19T10:57:39.818Z,38.50
2022-10-19T11:00:11.042Z,40.07
2022-10-19T11:02:37.493Z,34.10
2022-10-19T11:05:13.486Z,40.03
2022-10-19T11:07:43.908Z,33.37
2022-10-19T11:10:24.925Z,29.50
2022-10-19T11:13:15.756Z,32.70
2022-10-19T11:15:48.659Z,38.20
2022-10-19T11:18:42.366Z,35.20
2022-10-19T11:21:12.055Z,38.53
2022-10-19T11:24:06.468Z,45.67
2022-10-19T11:26:53.353Z,42.73
2022-10-19T11:29:43.808Z,41.27
2022-10-19T11:32:23.603Z,32.77
2022-10-19T11:35:13.223Z,34.10
2022-10-19T11:37:49.950Z,43.57
2022-10-19T11:40:32.045Z,31.83
2022-10-19T11:43:11.973Z,39.03
2022-10-19T11:45:52.115Z,38.13
2022-10-19T11:48:54.902Z,28.03
2022-10-19T11:51:32.610Z,31.17
2022-10-19T11:54:36.719Z,31.97
2022-10-19T11:57:11.594Z,41.00
2022-10-19T11:59:41.149Z,32.70
2022-10-19T12:02:19.072Z,28.90
2022-10-19T12:04:56.113Z,28.53
2022-10-19T12:07:28.519Z,30.30
2022-10-19T12:10:13.120Z,25.47
2022-10-19T12:12:52.292Z,27.43
2022-10-19T12:15:31.170Z,26.13
2022-10-19T12:18:04.330Z,26.83
2022-10-19T12:20:52.809Z,28.43
2022-10-19T12:23:22.183Z,25.43
2022-10-19T12:25:50.018Z,28.30
2022-10-19T12:28:27.187Z,33.03
2022-10-19T12:30:53.831Z,33.13
2022-10-19T12:33:25.299Z,31.57
2022-10-19T12:36:16.626Z,29.60
2022-10-19T12:39:10.578Z,27.27
2022-10-19T12:42:10.756Z,34.50
2022-10-19T12:45:08.164Z,30.80
2022-10-19T12:47:35.046Z,28.40
2022-10-19T12:50:01.789Z,36.40
2022-10-19T12:52:48.698Z,38.73
2022-10-19T12:55:15.085Z,23.33
2022-10-19T12:57:43.687Z,24.70
2022-10-19T13:00:22.914Z,31.07
2022-10-19T13:02:58.444Z,21.83
2022-10-19T13:05:26.530Z,23.77
2022-10-19T13:07:53.389Z,23.97
2022-10-19T13:10:25.275Z,20.50
2022-10-19T13:12:52.105Z,29.10
2022-10-19T13:15:33.807Z,22.70
2022-10-19T13:18:01.790Z,23.53
2022-10-19T13:20:28.528Z,38.77
2022-10-19T13:23:00.821Z,31.07
2022-10-19T13:25:42.833Z,28.03
2022-10-19T13:28:15.181Z,28.23
2022-10-19T13:30:44.490Z,26.40
2022-10-19T13:33:28.442Z,25.20
2022-10-19T13:36:00.821Z,19.43
2022-10-19T13:38:47.742Z,20.70
2022-10-19T13:41:47.293Z,24.40
2022-10-19T13:44:20.386Z,18.70
2022-10-19T13:46:52.922Z,21.50
2022-10-19T13:49:43.838Z,21.37
2022-10-19T13:52:32.099Z,21.13
2022-10-19T13:55:17.494Z,23.70
2022-10-19T13:58:05.774Z,23.93
2022-10-19T14:00:45.168Z,19.50
2022-10-19T14:03:31.126Z,20.63
2022-10-19T14:06:27.632Z,27.33
2022-10-19T14:09:16.758Z,21.03
2022-10-19T14:11:45.884Z,21.00
2022-10-19T14:14:19.020Z,17.67
2022-10-19T14:16:59.723Z,31.43
2022-10-19T14:19:51.457Z,35.13
2022-10-19T14:22:34.081Z,43.47
2022-10-19T14:25:24.753Z,19.03
2022-10-19T14:27:58.807Z,17.93
2022-10-19T14:30:28.125Z,28.63
2022-10-19T14:32:59.388Z,35.43
2022-10-19T14:35:31.879Z,18.47
2022-10-19T14:37:58.799Z,81.00
2022-10-19T14:40:31.067Z,47.97
2022-10-19T14:42:59.151Z,61.40
2022-10-19T14:45:31.114Z,43.77
2022-10-19T14:48:15.411Z,22.47
2022-10-19T14:50:43.466Z,20.43
2022-10-19T14:53:34.587Z,21.80
2022-10-19T14:56:08.929Z,20.33
2022-10-19T14:58:58.510Z,14.30
2022-10-19T15:01:25.437Z,57.37
2022-10-19T15:03:52.401Z,61.57
2022-10-19T15:06:25.873Z,40.17
2022-10-19T15:08:55.934Z,27.50
2022-10-19T15:11:26.821Z,20.67
2022-10-19T15:14:02.132Z,16.63
2022-10-19T15:16:48.881Z,25.87
2022-10-19T15:19:23.787Z,23.53
2022-10-19T15:22:09.297Z,22.80
2022-10-19T15:24:36.752Z,18.27
2022-10-19T15:27:20.862Z,18.97
2022-10-19T15:30:23.415Z,24.27
2022-10-19T15:32:57.503Z,24.13
2022-10-19T15:35:33.069Z,29.17
2022-10-19T15:38:04.022Z,23.83
2022-10-19T15:40:34.537Z,20.40
2022-10-19T15:43:01.092Z,37.43
2022-10-19T15:45:31.249Z,21.77
2022-10-19T15:48:09.791Z,16.47
2022-10-19T15:50:40.163Z,19.73
2022-10-19T15:53:06.700Z,16.77
2022-10-19T15:55:33.229Z,18.90
2022-10-19T15:58:00.348Z,27.33
2022-10-19T16:00:27.729Z,23.97
2022-10-19T16:02:54.218Z,30.47
2022-10-19T16:05:20.688Z,21.67
2022-10-19T16:07:47.594Z,18.83
2022-10-19T16:10:19.808Z,23.40
2022-10-19T16:12:46.432Z,40.73
2022-10-19T16:15:23.383Z,20.83
2022-10-19T16:17:55.924Z,27.47
2022-10-19T16:20:23.107Z,16.13
2022-10-19T16:22:49.717Z,35.20
2022-10-19T16:25:16.367Z,52.27
2022-10-19T16:27:42.872Z,37.70
2022-10-19T16:30:09.944Z,26.20
2022-10-19T16:32:36.758Z,23.20
2022-10-19T16:35:03.545Z,23.47
2022-10-19T16:37:30.309Z,27.53
2022-10-19T16:39:56.765Z,23.13
2022-10-19T16:42:25.645Z,45.13
2022-10-19T16:44:55.232Z,43.13
2022-10-19T16:47:21.950Z,33.60
2022-10-19T16:49:48.517Z,27.37
2022-10-19T16:52:15.179Z,17.23
2022-10-19T16:54:41.748Z,15.77
2022-10-19T16:57:09.996Z,25.30
2022-10-19T16:59:36.624Z,18.40
2022-10-19T17:02:03.199Z,13.43
2022-10-19T17:04:29.688Z,17.73
2022-10-19T17:06:57.116Z,20.03
2022-10-19T17:12:12.064Z,20.17
2022-10-19T17:14:40.201Z,21.43
2022-10-19T17:17:07.430Z,35.67
2022-10-19T17:19:34.155Z,28.87
2022-10-19T17:22:02.171Z,18.47
2022-10-19T17:24:28.937Z,28.63
2022-10-19T17:26:55.458Z,35.03
2022-10-19T17:29:22.535Z,38.13
2022-10-19T17:31:49.658Z,42.27
2022-10-19T17:34:16.804Z,27.30
2022-10-19T17:36:44.945Z,31.43
2022-10-19T17:39:17.924Z,17.43
2022-10-19T17:41:45.960Z,17.47
2022-10-19T17:44:14.335Z,15.87
2022-10-19T17:46:40.972Z,17.53
2022-10-19T17:49:07.615Z,16.83
2022-10-19T17:51:35.440Z,21.40
2022-10-19T17:54:04.559Z,16.73
2022-10-19T17:56:31.641Z,19.60
2022-10-19T17:58:58.716Z,22.97
2022-10-19T18:01:25.683Z,23.87
2022-10-19T18:03:52.448Z,22.17
2022-10-19T18:06:24.358Z,30.63
2022-10-19T18:08:52.773Z,42.30
2022-10-19T18:11:20.612Z,26.90
2022-10-19T18:13:48.379Z,21.87
2022-10-19T18:16:17.383Z,30.00
2022-10-19T18:18:48.488Z,24.50
2022-10-19T18:21:16.675Z,21.93
2022-10-19T18:23:43.126Z,19.90
2022-10-19T18:26:15.766Z,19.07
2022-10-19T18:28:42.311Z,22.10
2022-10-19T18:31:08.733Z,19.43
2022-10-19T18:33:35.491Z,18.87
2022-10-19T18:36:02.166Z,20.90
2022-10-19T18:38:28.755Z,23.50
2022-10-19T18:40:56.171Z,19.80
2022-10-19T18:43:23.324Z,31.90
2022-10-19T18:45:54.037Z,30.10
2022-10-19T18:48:20.993Z,32.37
2022-10-19T18:50:47.761Z,30.07
2022-10-19T18:53:14.473Z,21.43
2022-10-19T18:55:42.009Z,21.23
2022-10-19T18:58:09.025Z,24.70
2022-10-19T19:00:35.662Z,30.20
2022-10-19T19:03:02.169Z,22.40
2022-10-19T19:05:29.025Z,28.50
2022-10-19T19:07:56.014Z,28.60
2022-10-19T19:10:22.521Z,25.37
2022-10-19T19:12:50.333Z,22.87
2022-10-19T19:15:17.440Z,24.13
2022-10-19T19:17:44.052Z,35.77
2022-10-19T19:20:10.645Z,24.23
2022-10-19T19:22:37.329Z,24.53
2022-10-19T19:25:04.473Z,27.70
2022-10-19T19:27:32.076Z,34.17
2022-10-19T19:30:00.636Z,31.33
2022-10-19T19:32:27.601Z,22.20
2022-10-19T19:34:54.940Z,19.00
2022-10-19T19:37:21.553Z,27.57
2022-10-19T19:39:47.977Z,24.10
2022-10-19T19:42:14.548Z,27.90
2022-10-19T19:44:41.065Z,24.30
2022-10-19T19:47:08.429Z,25.63
2022-10-19T19:49:34.882Z,31.83
2022-10-19T19:52:01.729Z,37.50
2022-10-19T19:54:28.421Z,23.23
2022-10-19T19:56:55.030Z,30.50
2022-10-19T19:59:21.662Z,29.70
2022-10-19T20:01:48.356Z,31.90
2022-10-19T20:04:14.972Z,24.33
2022-10-19T20:06:42.911Z,24.57
2022-10-19T20:09:10.622Z,30.20
2022-10-19T20:11:42.107Z,35.27
2022-10-19T20:14:09.338Z,30.97
2022-10-19T20:16:37.068Z,26.90
2022-10-19T20:19:11.708Z,32.33
2022-10-19T20:21:38.548Z,21.80
2022-10-19T20:24:05.221Z,37.90
2022-10-19T20:26:31.870Z,26.70
2022-10-19T20:28:59.291Z,33.00
2022-10-19T20:31:26.057Z,32.20
2022-10-19T20:33:52.549Z,28.60
2022-10-19T20:36:24.157Z,21.23
2022-10-19T20:38:52.670Z,21.97
2022-10-19T20:41:20.871Z,31.33
2022-10-19T20:43:47.508Z,38.07
2022-10-19T20:46:19.293Z,28.57
2022-10-19T20:48:45.820Z,28.53
2022-10-19T20:51:18.000Z,29.67
2022-10-19T20:53:47.387Z,20.00
2022-10-19T20:56:16.114Z,25.60
2022-10-19T20:58:43.700Z,30.67
2022-10-19T21:01:13.498Z,27.87
2022-10-19T21:03:40.610Z,21.90
2022-10-19T21:06:08.499Z,31.27
2022-10-19T21:08:35.879Z,46.50
2022-10-19T21:11:12.169Z,33.43
2022-10-19T21:13:38.729Z,29.77
2022-10-19T21:16:16.778Z,35.73
2022-10-19T21:18:44.318Z,27.23
2022-10-19T21:21:12.639Z,28.13
2022-10-19T21:23:39.444Z,19.07
2022-10-19T21:26:06.123Z,36.60
2022-10-19T21:28:32.651Z,27.83
2022-10-19T21:31:06.824Z,32.60
2022-10-19T21:33:33.395Z,36.83
2022-10-19T21:36:05.082Z,32.57
2022-10-19T21:38:31.760Z,32.20
2022-10-19T21:40:59.777Z,30.93
2022-10-19T21:43:26.547Z,35.37
2022-10-19T21:45:53.190Z,32.10
2022-10-19T21:48:19.928Z,26.10
2022-10-19T21:50:46.611Z,22.70
2022-10-19T21:53:13.275Z,32.23
2022-10-19T21:55:39.764Z,23.23
2022-10-19T21:58:06.314Z,27.17
2022-10-19T22:00:32.759Z,21.70
2022-10-19T22:02:59.266Z,28.77
2022-10-19T22:05:25.928Z,22.80
2022-10-19T22:07:52.406Z,35.20
2022-10-19T22:10:18.902Z,15.77
2022-10-19T22:12:47.629Z,28.30
2022-10-19T22:15:14.134Z,37.17
2022-10-19T22:17:40.751Z,26.20
2022-10-19T22:20:08.000Z,36.70
2022-10-19T22:22:34.638Z,32.27
2022-10-19T22:25:01.246Z,32.17
2022-10-19T22:27:27.699Z,29.23
2022-10-19T22:30:12.391Z,17.40
2022-10-19T22:32:39.303Z,30.93
2022-10-19T22:35:06.146Z,16.77
2022-10-19T22:37:34.444Z,23.13
2022-10-19T22:40:00.928Z,23.90
2022-10-19T22:42:27.433Z,17.97
2022-10-19T22:44:53.952Z,23.60
2022-10-19T22:47:20.452Z,22.83
2022-10-19T22:49:46.888Z,25.93
2022-10-19T22:52:13.470Z,29.43
2022-10-19T22:54:39.993Z,20.80
2022-10-19T22:57:06.468Z,30.20
2022-10-19T22:59:33.351Z,33.57
2022-10-19T23:01:59.974Z,20.87
2022-10-19T23:04:26.791Z,16.60
2022-10-19T23:06:53.340Z,24.97
2022-10-19T23:09:19.879Z,21.30
2022-10-19T23:11:46.693Z,25.27
2022-10-19T23:14:13.267Z,27.20
2022-10-19T23:16:39.939Z,32.93
2022-10-19T23:19:06.424Z,16.50
2022-10-19T23:21:33.172Z,17.27
2022-10-19T23:23:59.818Z,14.87
2022-10-19T23:26:26.673Z,19.23
2022-10-19T23:28:53.127Z,23.10
2022-10-19T23:31:26.504Z,17.80
2022-10-19T23:33:54.239Z,16.33
2022-10-19T23:36:23.052Z,19.43
2022-10-19T23:38:50.416Z,27.13
2022-10-19T23:41:17.997Z,22.70
2022-10-19T23:43:44.451Z,23.27
2022-10-19T23:46:11.113Z,26.17
2022-10-19T23:48:37.728Z,23.00
2022-10-19T23:51:09.499Z,18.30
2022-10-19T23:53:40.949Z,26.37
2022-10-19T23:56:11.982Z,18.63
2022-10-19T23:58:38.704Z,12.67
